sensor_id;sensor_type;location;lat;lon;timestamp;pressure;altitude;pressure_sealevel;temperature;humidity
1954;BME280;977;42.704;23.354;2022-07-23T08:15:47;95421.59;;;33.25;34.73
1954;BME280;977;42.704;23.354;2022-07-23T08:18:13;95412.25;;;33.40;34.75
1954;BME280;977;42.704;23.354;2022-07-23T08:20:39;95408.47;;;33.85;34.69
1954;BME280;977;42.704;23.354;2022-07-23T08:23:08;95414.34;;;34.21;32.98
1954;BME280;977;42.704;23.354;2022-07-23T08:25:37;95412.53;;;34.34;33.08
1954;BME280;977;42.704;23.354;2022-07-23T08:28:05;95410.97;;;34.24;33.05
1954;BME280;977;42.704;23.354;2022-07-23T08:30:32;95403.22;;;34.14;33.09
1954;BME280;977;42.704;23.354;2022-07-23T08:33:03;95409.38;;;34.32;33.25
1954;BME280;977;42.704;23.354;2022-07-23T08:35:34;95399.94;;;34.64;32.86
1954;BME280;977;42.704;23.354;2022-07-23T08:38:01;95401.44;;;34.82;33.09
1954;BME280;977;42.704;23.354;2022-07-23T08:40:29;95405.63;;;34.71;32.29
1954;BME280;977;42.704;23.354;2022-07-23T08:42:55;95406.78;;;35.00;33.03
1954;BME280;977;42.704;23.354;2022-07-23T08:45:23;95399.69;;;35.16;32.07
1954;BME280;977;42.704;23.354;2022-07-23T08:47:53;95396.09;;;35.03;32.39
1954;BME280;977;42.704;23.354;2022-07-23T08:50:20;95397.28;;;35.15;32.12
1954;BME280;977;42.704;23.354;2022-07-23T08:52:47;95401.75;;;35.40;32.19
1954;BME280;977;42.704;23.354;2022-07-23T08:55:13;95402.91;;;35.60;31.38
1954;BME280;977;42.704;23.354;2022-07-23T08:57:39;95389.75;;;35.92;31.09
1954;BME280;977;42.704;23.354;2022-07-23T09:00:05;95390.53;;;36.25;31.17
1954;BME280;977;42.704;23.354;2022-07-23T09:02:38;95393.81;;;36.31;30.15
1954;BME280;977;42.704;23.354;2022-07-23T09:05:04;95392.91;;;36.15;30.46
1954;BME280;977;42.704;23.354;2022-07-23T09:07:30;95384.28;;;36.13;31.03
1954;BME280;977;42.704;23.354;2022-07-23T09:10:10;95392.41;;;36.13;30.68
1954;BME280;977;42.704;23.354;2022-07-23T09:12:36;95382.72;;;35.57;31.21
1954;BME280;977;42.704;23.354;2022-07-23T09:15:07;95386.91;;;34.96;31.62
1954;BME280;977;42.704;23.354;2022-07-23T09:17:39;95380.47;;;34.24;33.03
1954;BME280;977;42.704;23.354;2022-07-23T09:20:13;95376.44;;;34.39;33.36
1954;BME280;977;42.704;23.354;2022-07-23T09:22:46;95380.44;;;34.32;32.19
1954;BME280;977;42.704;23.354;2022-07-23T09:25:17;95379.22;;;34.21;32.43
1954;BME280;977;42.704;23.354;2022-07-23T09:27:49;95374.44;;;34.18;32.56
1954;BME280;977;42.704;23.354;2022-07-23T09:30:15;95375.81;;;34.42;32.86
1954;BME280;977;42.704;23.354;2022-07-23T09:32:41;95375.25;;;35.04;31.65
1954;BME280;977;42.704;23.354;2022-07-23T09:35:07;95373.66;;;35.53;31.72
1954;BME280;977;42.704;23.354;2022-07-23T09:37:34;95369.00;;;35.75;31.04
1954;BME280;977;42.704;23.354;2022-07-23T09:40:08;95368.94;;;36.04;29.61
1954;BME280;977;42.704;23.354;2022-07-23T09:42:34;95363.75;;;36.57;28.53
1954;BME280;977;42.704;23.354;2022-07-23T09:45:01;95355.63;;;36.94;28.35
1954;BME280;977;42.704;23.354;2022-07-23T09:47:29;95348.59;;;37.17;27.40
1954;BME280;977;42.704;23.354;2022-07-23T09:50:04;95356.25;;;37.40;27.68
1954;BME280;977;42.704;23.354;2022-07-23T09:52:37;95351.13;;;37.50;27.35
1954;BME280;977;42.704;23.354;2022-07-23T09:55:08;95354.91;;;37.74;27.45
1954;BME280;977;42.704;23.354;2022-07-23T09:57:34;95358.09;;;37.92;26.87
1954;BME280;977;42.704;23.354;2022-07-23T10:00:07;95346.06;;;38.21;26.94
1954;BME280;977;42.704;23.354;2022-07-23T10:02:35;95341.56;;;38.41;26.55
1954;BME280;977;42.704;23.354;2022-07-23T10:05:01;95339.78;;;38.32;25.48
1954;BME280;977;42.704;23.354;2022-07-23T10:07:31;95335.88;;;38.18;27.01
1954;BME280;977;42.704;23.354;2022-07-23T10:09:59;95335.75;;;38.42;26.32
1954;BME280;977;42.704;23.354;2022-07-23T10:12:25;95330.56;;;38.53;25.81
1954;BME280;977;42.704;23.354;2022-07-23T10:15:09;95325.47;;;38.67;26.49
1954;BME280;977;42.704;23.354;2022-07-23T10:17:35;95328.72;;;38.73;26.03
1954;BME280;977;42.704;23.354;2022-07-23T10:20:01;95322.56;;;38.92;25.32
1954;BME280;977;42.704;23.354;2022-07-23T10:22:30;95322.88;;;39.06;24.83
1954;BME280;977;42.704;23.354;2022-07-23T10:27:53;95322.28;;;38.97;24.01
1954;BME280;977;42.704;23.354;2022-07-23T10:35:55;95315.56;;;37.83;23.64
1954;BME280;977;42.704;23.354;2022-07-23T10:38:37;95306.06;;;37.77;23.83
1954;BME280;977;42.704;23.354;2022-07-23T10:41:06;95304.13;;;38.06;23.48
1954;BME280;977;42.704;23.354;2022-07-23T10:43:32;95297.13;;;38.52;23.79
1954;BME280;977;42.704;23.354;2022-07-23T10:46:23;95296.38;;;39.03;23.55
1954;BME280;977;42.704;23.354;2022-07-23T10:49:24;95302.84;;;39.33;23.43
1954;BME280;977;42.704;23.354;2022-07-23T10:57:28;95279.59;;;37.18;23.28
1954;BME280;977;42.704;23.354;2022-07-23T11:02:41;95278.63;;;36.74;24.00
1954;BME280;977;42.704;23.354;2022-07-23T11:05:11;95263.25;;;36.90;23.34
1954;BME280;977;42.704;23.354;2022-07-23T11:10:33;95255.22;;;37.62;23.43
1954;BME280;977;42.704;23.354;2022-07-23T11:29:39;95256.47;;;39.10;21.75
1954;BME280;977;42.704;23.354;2022-07-23T11:32:07;95249.50;;;38.43;21.45
1954;BME280;977;42.704;23.354;2022-07-23T11:34:40;95241.25;;;38.39;22.27
1954;BME280;977;42.704;23.354;2022-07-23T11:37:09;95236.31;;;38.29;21.46
1954;BME280;977;42.704;23.354;2022-07-23T11:39:35;95233.09;;;37.92;21.35
1954;BME280;977;42.704;23.354;2022-07-23T11:42:02;95233.81;;;37.89;21.86
1954;BME280;977;42.704;23.354;2022-07-23T11:44:35;95233.09;;;38.23;22.22
1954;BME280;977;42.704;23.354;2022-07-23T11:47:10;95230.44;;;38.58;21.65
1954;BME280;977;42.704;23.354;2022-07-23T11:49:52;95232.66;;;38.88;21.31
1954;BME280;977;42.704;23.354;2022-07-23T11:52:17;95227.66;;;38.90;21.16
1954;BME280;977;42.704;23.354;2022-07-23T11:54:54;95225.13;;;38.81;21.18
1954;BME280;977;42.704;23.354;2022-07-23T11:57:24;95218.84;;;38.97;21.20
1954;BME280;977;42.704;23.354;2022-07-23T11:59:53;95216.00;;;38.74;21.11
1954;BME280;977;42.704;23.354;2022-07-23T12:02:21;95224.00;;;38.82;20.52
1954;BME280;977;42.704;23.354;2022-07-23T12:04:49;95216.47;;;38.60;20.04
1954;BME280;977;42.704;23.354;2022-07-23T12:07:35;95216.16;;;38.46;19.90
1954;BME280;977;42.704;23.354;2022-07-23T12:10:21;95208.25;;;38.56;20.80
1954;BME280;977;42.704;23.354;2022-07-23T12:12:49;95209.31;;;38.52;20.01
1954;BME280;977;42.704;23.354;2022-07-23T12:15:18;95208.19;;;38.21;20.21
1954;BME280;977;42.704;23.354;2022-07-23T12:17:47;95210.84;;;38.02;20.35
1954;BME280;977;42.704;23.354;2022-07-23T12:20:16;95200.81;;;38.06;20.17
1954;BME280;977;42.704;23.354;2022-07-23T12:22:47;95213.13;;;38.31;20.19
1954;BME280;977;42.704;23.354;2022-07-23T12:25:19;95200.00;;;38.53;19.77
1954;BME280;977;42.704;23.354;2022-07-23T12:27:45;95198.59;;;38.59;20.06
1954;BME280;977;42.704;23.354;2022-07-23T12:30:23;95199.28;;;38.56;20.62
1954;BME280;977;42.704;23.354;2022-07-23T12:32:51;95196.63;;;38.75;19.90
1954;BME280;977;42.704;23.354;2022-07-23T12:35:18;95191.84;;;38.72;19.34
1954;BME280;977;42.704;23.354;2022-07-23T12:37:45;95187.63;;;38.55;20.21
1954;BME280;977;42.704;23.354;2022-07-23T12:40:24;95183.88;;;38.44;19.32
1954;BME280;977;42.704;23.354;2022-07-23T12:42:56;95179.06;;;38.38;20.16
1954;BME280;977;42.704;23.354;2022-07-23T12:45:22;95181.53;;;38.11;19.05
1954;BME280;977;42.704;23.354;2022-07-23T12:50:39;95174.63;;;37.98;19.72
1954;BME280;977;42.704;23.354;2022-07-23T12:53:09;95176.22;;;37.99;20.19
1954;BME280;977;42.704;23.354;2022-07-23T12:55:36;95174.19;;;38.12;18.71
1954;BME280;977;42.704;23.354;2022-07-23T12:58:03;95166.97;;;38.35;18.61
1954;BME280;977;42.704;23.354;2022-07-23T13:00:30;95174.53;;;38.61;18.74
1954;BME280;977;42.704;23.354;2022-07-23T13:02:56;95163.06;;;38.71;18.31
1954;BME280;977;42.704;23.354;2022-07-23T13:05:21;95164.66;;;38.72;18.68
1954;BME280;977;42.704;23.354;2022-07-23T13:07:47;95165.88;;;38.75;19.00
1954;BME280;977;42.704;23.354;2022-07-23T13:10:12;95160.06;;;38.57;18.23
1954;BME280;977;42.704;23.354;2022-07-23T13:12:38;95157.78;;;38.59;19.62
1954;BME280;977;42.704;23.354;2022-07-23T13:15:04;95160.84;;;38.22;19.69
1954;BME280;977;42.704;23.354;2022-07-23T13:17:31;95158.03;;;38.19;19.83
1954;BME280;977;42.704;23.354;2022-07-23T13:19:56;95153.53;;;38.26;18.48
1954;BME280;977;42.704;23.354;2022-07-23T13:22:22;95161.63;;;38.23;18.81
1954;BME280;977;42.704;23.354;2022-07-23T13:24:47;95149.09;;;38.18;18.60
1954;BME280;977;42.704;23.354;2022-07-23T13:27:13;95156.88;;;38.20;18.90
1954;BME280;977;42.704;23.354;2022-07-23T13:29:39;95159.78;;;38.27;18.75
1954;BME280;977;42.704;23.354;2022-07-23T13:32:04;95161.59;;;38.39;18.00
1954;BME280;977;42.704;23.354;2022-07-23T13:34:30;95150.25;;;38.52;18.51
1954;BME280;977;42.704;23.354;2022-07-23T13:36:55;95148.75;;;38.55;18.44
1954;BME280;977;42.704;23.354;2022-07-23T13:39:21;95148.84;;;38.58;18.11
1954;BME280;977;42.704;23.354;2022-07-23T13:41:46;95149.47;;;38.52;19.09
1954;BME280;977;42.704;23.354;2022-07-23T13:44:12;95142.88;;;38.53;18.19
1954;BME280;977;42.704;23.354;2022-07-23T13:46:37;95143.44;;;38.43;18.17
1954;BME280;977;42.704;23.354;2022-07-23T13:49:03;95140.63;;;38.39;18.69
1954;BME280;977;42.704;23.354;2022-07-23T13:51:28;95145.13;;;38.16;18.24
1954;BME280;977;42.704;23.354;2022-07-23T13:53:54;95145.50;;;38.14;18.03
1954;BME280;977;42.704;23.354;2022-07-23T13:56:19;95143.84;;;38.09;18.32
1954;BME280;977;42.704;23.354;2022-07-23T13:58:45;95135.31;;;38.11;18.64
1954;BME280;977;42.704;23.354;2022-07-23T14:01:10;95131.66;;;37.72;18.82
1954;BME280;977;42.704;23.354;2022-07-23T14:03:36;95126.31;;;37.44;19.36
1954;BME280;977;42.704;23.354;2022-07-23T14:06:01;95121.94;;;37.39;18.99
1954;BME280;977;42.704;23.354;2022-07-23T14:08:27;95123.66;;;37.31;19.07
1954;BME280;977;42.704;23.354;2022-07-23T14:10:52;95129.56;;;37.05;18.64
1954;BME280;977;42.704;23.354;2022-07-23T14:13:18;95125.38;;;36.80;19.08
1954;BME280;977;42.704;23.354;2022-07-23T14:15:43;95123.44;;;36.80;19.14
1954;BME280;977;42.704;23.354;2022-07-23T14:18:09;95118.66;;;36.90;18.72
1954;BME280;977;42.704;23.354;2022-07-23T14:20:34;95122.28;;;36.94;18.38
1954;BME280;977;42.704;23.354;2022-07-23T14:23:00;95124.03;;;37.02;19.00
1954;BME280;977;42.704;23.354;2022-07-23T14:25:26;95127.38;;;37.11;19.03
1954;BME280;977;42.704;23.354;2022-07-23T14:27:51;95123.47;;;37.24;19.28
1954;BME280;977;42.704;23.354;2022-07-23T14:30:17;95112.19;;;37.22;18.57
1954;BME280;977;42.704;23.354;2022-07-23T14:32:43;95114.78;;;37.19;19.33
1954;BME280;977;42.704;23.354;2022-07-23T14:35:08;95115.59;;;37.19;18.94
1954;BME280;977;42.704;23.354;2022-07-23T14:37:34;95109.47;;;37.22;19.57
1954;BME280;977;42.704;23.354;2022-07-23T14:39:59;95113.38;;;37.25;20.46
1954;BME280;977;42.704;23.354;2022-07-23T14:42:25;95103.22;;;37.22;20.68
1954;BME280;977;42.704;23.354;2022-07-23T14:44:51;95110.78;;;37.28;20.51
1954;BME280;977;42.704;23.354;2022-07-23T14:47:16;95115.84;;;37.30;20.33
1954;BME280;977;42.704;23.354;2022-07-23T14:49:41;95109.22;;;37.27;20.12
1954;BME280;977;42.704;23.354;2022-07-23T14:52:07;95108.31;;;37.23;19.99
1954;BME280;977;42.704;23.354;2022-07-23T14:54:33;95106.41;;;37.24;19.41
1954;BME280;977;42.704;23.354;2022-07-23T14:57:00;95094.03;;;37.10;19.44
1954;BME280;977;42.704;23.354;2022-07-23T14:59:27;95094.28;;;37.05;19.95
1954;BME280;977;42.704;23.354;2022-07-23T15:01:53;95092.63;;;36.89;19.63
1954;BME280;977;42.704;23.354;2022-07-23T15:04:19;95088.22;;;36.68;19.97
1954;BME280;977;42.704;23.354;2022-07-23T15:06:46;95090.09;;;36.52;20.41
1954;BME280;977;42.704;23.354;2022-07-23T15:09:12;95083.31;;;36.46;20.70
1954;BME280;977;42.704;23.354;2022-07-23T15:11:39;95080.09;;;36.28;20.67
1954;BME280;977;42.704;23.354;2022-07-23T15:14:04;95079.56;;;36.10;23.54
1954;BME280;977;42.704;23.354;2022-07-23T15:16:32;95074.94;;;35.86;25.07
1954;BME280;977;42.704;23.354;2022-07-23T15:18:58;95070.53;;;35.69;25.50
1954;BME280;977;42.704;23.354;2022-07-23T15:21:23;95066.81;;;35.62;25.68
1954;BME280;977;42.704;23.354;2022-07-23T15:23:49;95066.03;;;35.49;25.55
1954;BME280;977;42.704;23.354;2022-07-23T15:26:14;95072.13;;;35.46;25.41
1954;BME280;977;42.704;23.354;2022-07-23T15:28:41;95065.06;;;35.32;25.89
1954;BME280;977;42.704;23.354;2022-07-23T15:31:07;95068.47;;;35.29;25.92
1954;BME280;977;42.704;23.354;2022-07-23T15:33:32;95065.88;;;35.21;26.02
1954;BME280;977;42.704;23.354;2022-07-23T15:35:58;95057.38;;;35.10;25.61
1954;BME280;977;42.704;23.354;2022-07-23T15:38:25;95053.00;;;35.05;25.56
1954;BME280;977;42.704;23.354;2022-07-23T15:40:50;95065.00;;;34.96;25.21
1954;BME280;977;42.704;23.354;2022-07-23T15:43:16;95074.50;;;35.02;24.97
1954;BME280;977;42.704;23.354;2022-07-23T15:45:41;95065.59;;;35.01;25.20
1954;BME280;977;42.704;23.354;2022-07-23T15:48:07;95063.69;;;35.02;24.93
1954;BME280;977;42.704;23.354;2022-07-23T15:50:32;95070.69;;;35.03;25.16
1954;BME280;977;42.704;23.354;2022-07-23T15:52:58;95063.69;;;35.02;25.05
1954;BME280;977;42.704;23.354;2022-07-23T15:55:24;95070.69;;;35.03;25.44
1954;BME280;977;42.704;23.354;2022-07-23T15:57:50;95065.50;;;35.10;25.69
1954;BME280;977;42.704;23.354;2022-07-23T16:00:15;95063.34;;;35.03;25.70
1954;BME280;977;42.704;23.354;2022-07-23T16:02:41;95068.88;;;35.07;26.27
1954;BME280;977;42.704;23.354;2022-07-23T16:05:07;95074.94;;;35.04;26.14
1954;BME280;977;42.704;23.354;2022-07-23T16:07:51;95071.06;;;34.93;25.82
1954;BME280;977;42.704;23.354;2022-07-23T16:10:17;95072.31;;;34.95;25.55
1954;BME280;977;42.704;23.354;2022-07-23T16:12:42;95068.03;;;34.94;26.00
1954;BME280;977;42.704;23.354;2022-07-23T16:15:08;95066.31;;;34.90;26.09
1954;BME280;977;42.704;23.354;2022-07-23T16:17:34;95074.44;;;34.90;25.97
1954;BME280;977;42.704;23.354;2022-07-23T16:19:59;95067.66;;;34.83;25.79
1954;BME280;977;42.704;23.354;2022-07-23T16:22:25;95077.56;;;34.79;25.86
1954;BME280;977;42.704;23.354;2022-07-23T16:24:50;95061.56;;;34.74;26.09
1954;BME280;977;42.704;23.354;2022-07-23T16:27:16;95075.06;;;34.74;25.94
1954;BME280;977;42.704;23.354;2022-07-23T16:29:42;95071.31;;;34.67;26.17
1954;BME280;977;42.704;23.354;2022-07-23T16:32:07;95061.50;;;34.62;26.09
1954;BME280;977;42.704;23.354;2022-07-23T16:34:32;95062.63;;;34.61;25.87
1954;BME280;977;42.704;23.354;2022-07-23T16:36:58;95069.81;;;34.57;26.62
1954;BME280;977;42.704;23.354;2022-07-23T16:39:24;95064.28;;;34.53;26.69
1954;BME280;977;42.704;23.354;2022-07-23T16:41:50;95078.50;;;34.63;26.43
1954;BME280;977;42.704;23.354;2022-07-23T16:44:15;95072.53;;;34.57;26.48
1954;BME280;977;42.704;23.354;2022-07-23T16:46:42;95073.66;;;34.56;26.35
1954;BME280;977;42.704;23.354;2022-07-23T16:49:08;95080.41;;;34.50;26.43
1954;BME280;977;42.704;23.354;2022-07-23T16:51:33;95076.00;;;34.37;26.12
1954;BME280;977;42.704;23.354;2022-07-23T16:53:59;95072.97;;;34.38;26.16
1954;BME280;977;42.704;23.354;2022-07-23T16:56:33;95078.44;;;34.29;26.32
1954;BME280;977;42.704;23.354;2022-07-23T16:58:59;95070.81;;;34.31;26.51
1954;BME280;977;42.704;23.354;2022-07-23T17:01:24;95071.94;;;34.30;26.18
1954;BME280;977;42.704;23.354;2022-07-23T17:03:50;95074.16;;;34.28;26.82
1954;BME280;977;42.704;23.354;2022-07-23T17:06:15;95073.00;;;34.17;26.00
1954;BME280;977;42.704;23.354;2022-07-23T17:08:41;95072.25;;;34.08;27.11
1954;BME280;977;42.704;23.354;2022-07-23T17:11:06;95076.53;;;34.09;26.58
1954;BME280;977;42.704;23.354;2022-07-23T17:13:32;95064.81;;;34.05;26.95
1954;BME280;977;42.704;23.354;2022-07-23T17:15:57;95065.34;;;33.98;27.12
1954;BME280;977;42.704;23.354;2022-07-23T17:18:23;95072.00;;;33.92;27.21
1954;BME280;977;42.704;23.354;2022-07-23T17:20:49;95067.47;;;33.84;27.17
1954;BME280;977;42.704;23.354;2022-07-23T17:23:15;95056.41;;;33.68;28.26
1954;BME280;977;42.704;23.354;2022-07-23T17:25:41;95067.59;;;33.58;28.12
1954;BME280;977;42.704;23.354;2022-07-23T17:28:06;95062.88;;;33.55;28.12
1954;BME280;977;42.704;23.354;2022-07-23T17:30:32;95062.91;;;33.46;28.15
1954;BME280;977;42.704;23.354;2022-07-23T17:32:58;95058.16;;;33.35;28.47
1954;BME280;977;42.704;23.354;2022-07-23T17:35:23;95065.03;;;33.23;28.81
1954;BME280;977;42.704;23.354;2022-07-23T17:37:49;95061.84;;;33.21;28.90
1954;BME280;977;42.704;23.354;2022-07-23T17:40:14;95060.59;;;33.19;28.66
1954;BME280;977;42.704;23.354;2022-07-23T17:42:40;95065.66;;;33.20;28.50
1954;BME280;977;42.704;23.354;2022-07-23T17:45:07;95069.47;;;33.19;28.38
1954;BME280;977;42.704;23.354;2022-07-23T17:47:34;95070.28;;;33.11;28.60
1954;BME280;977;42.704;23.354;2022-07-23T17:50:00;95077.31;;;33.03;29.14
1954;BME280;977;42.704;23.354;2022-07-23T17:52:25;95073.19;;;32.97;29.39
1954;BME280;977;42.704;23.354;2022-07-23T17:54:51;95070.47;;;32.89;29.51
1954;BME280;977;42.704;23.354;2022-07-23T17:57:16;95068.78;;;32.75;29.58
1954;BME280;977;42.704;23.354;2022-07-23T17:59:42;95063.56;;;32.70;30.16
1954;BME280;977;42.704;23.354;2022-07-23T18:02:07;95066.25;;;32.70;30.40
1954;BME280;977;42.704;23.354;2022-07-23T18:04:33;95070.69;;;32.66;30.51
1954;BME280;977;42.704;23.354;2022-07-23T18:06:58;95075.13;;;32.62;30.55
1954;BME280;977;42.704;23.354;2022-07-23T18:09:24;95081.66;;;32.61;30.92
1954;BME280;977;42.704;23.354;2022-07-23T18:11:49;95082.44;;;32.53;31.44
1954;BME280;977;42.704;23.354;2022-07-23T18:14:15;95082.28;;;32.41;31.67
1954;BME280;977;42.704;23.354;2022-07-23T18:16:40;95088.78;;;32.40;31.64
1954;BME280;977;42.704;23.354;2022-07-23T18:19:06;95089.06;;;32.29;32.30
1954;BME280;977;42.704;23.354;2022-07-23T18:21:33;95087.66;;;32.23;32.84
1954;BME280;977;42.704;23.354;2022-07-23T18:23:58;95090.47;;;32.10;32.86
1954;BME280;977;42.704;23.354;2022-07-23T18:26:24;95093.00;;;31.97;33.60
1954;BME280;977;42.704;23.354;2022-07-23T18:28:49;95096.31;;;31.86;33.86
1954;BME280;977;42.704;23.354;2022-07-23T18:31:15;95103.53;;;31.76;34.13
1954;BME280;977;42.704;23.354;2022-07-23T18:33:40;95099.38;;;31.70;34.27
1954;BME280;977;42.704;23.354;2022-07-23T18:36:07;95099.19;;;31.58;34.77
1954;BME280;977;42.704;23.354;2022-07-23T18:38:32;95105.50;;;31.53;34.49
1954;BME280;977;42.704;23.354;2022-07-23T18:40:58;95099.13;;;31.41;34.78
1954;BME280;977;42.704;23.354;2022-07-23T18:43:24;95113.50;;;31.36;34.80
1954;BME280;977;42.704;23.354;2022-07-23T18:45:49;95111.06;;;31.26;35.14
1954;BME280;977;42.704;23.354;2022-07-23T18:48:15;95112.72;;;31.13;35.64
1954;BME280;977;42.704;23.354;2022-07-23T18:50:44;95115.53;;;31.08;36.39
1954;BME280;977;42.704;23.354;2022-07-23T18:53:11;95116.28;;;31.00;36.33
1954;BME280;977;42.704;23.354;2022-07-23T18:55:38;95126.31;;;30.86;36.50
1954;BME280;977;42.704;23.354;2022-07-23T18:58:04;95125.97;;;30.78;37.07
1954;BME280;977;42.704;23.354;2022-07-23T19:00:32;95128.72;;;30.51;37.87
1954;BME280;977;42.704;23.354;2022-07-23T19:02:58;95132.94;;;30.29;37.76
1954;BME280;977;42.704;23.354;2022-07-23T19:05:24;95131.28;;;30.20;38.30
1954;BME280;977;42.704;23.354;2022-07-23T19:07:49;95133.97;;;30.20;38.30
1954;BME280;977;42.704;23.354;2022-07-23T19:10:15;95147.38;;;30.20;37.99
1954;BME280;977;42.704;23.354;2022-07-23T19:12:40;95134.75;;;30.20;38.34
1954;BME280;977;42.704;23.354;2022-07-23T19:15:06;95148.81;;;30.17;36.66
1954;BME280;977;42.704;23.354;2022-07-23T19:17:32;95144.44;;;29.94;36.85
1954;BME280;977;42.704;23.354;2022-07-23T19:19:57;95144.22;;;29.76;36.78
1954;BME280;977;42.704;23.354;2022-07-23T19:22:23;95147.09;;;29.52;36.40
1954;BME280;977;42.704;23.354;2022-07-23T19:24:52;95153.63;;;29.46;38.06
1954;BME280;977;42.704;23.354;2022-07-23T19:27:17;95154.41;;;29.33;38.20
1954;BME280;977;42.704;23.354;2022-07-23T19:29:43;95146.72;;;29.26;37.23
1954;BME280;977;42.704;23.354;2022-07-23T19:32:08;95146.03;;;29.21;37.34
1954;BME280;977;42.704;23.354;2022-07-23T19:34:34;95157.72;;;29.11;37.60
1954;BME280;977;42.704;23.354;2022-07-23T19:36:59;95146.00;;;29.07;37.78
1954;BME280;977;42.704;23.354;2022-07-23T19:39:26;95149.78;;;29.06;37.60
1954;BME280;977;42.704;23.354;2022-07-23T19:41:51;95146.38;;;29.00;37.31
1954;BME280;977;42.704;23.354;2022-07-23T19:44:17;95154.22;;;28.97;38.22
1954;BME280;977;42.704;23.354;2022-07-23T19:46:42;95161.50;;;28.91;37.89
1954;BME280;977;42.704;23.354;2022-07-23T19:49:08;95155.16;;;28.87;37.64
1954;BME280;977;42.704;23.354;2022-07-23T19:51:33;95160.44;;;28.73;37.97
1954;BME280;977;42.704;23.354;2022-07-23T19:53:59;95151.00;;;28.62;38.23
1954;BME280;977;42.704;23.354;2022-07-23T19:56:24;95152.78;;;28.67;38.16
1954;BME280;977;42.704;23.354;2022-07-23T19:58:50;95156.34;;;28.62;37.49
1954;BME280;977;42.704;23.354;2022-07-23T20:01:16;95155.75;;;28.65;37.95
1954;BME280;977;42.704;23.354;2022-07-23T20:03:41;95152.56;;;28.63;37.49
1954;BME280;977;42.704;23.354;2022-07-23T20:06:07;95160.53;;;28.68;37.52
1954;BME280;977;42.704;23.354;2022-07-23T20:08:32;95156.34;;;28.62;38.07
1954;BME280;977;42.704;23.354;2022-07-23T20:10:58;95148.88;;;28.59;38.08
1954;BME280;977;42.704;23.354;2022-07-23T20:13:23;95155.34;;;28.58;38.67
1954;BME280;977;42.704;23.354;2022-07-23T20:15:49;95154.84;;;28.37;39.48
1954;BME280;977;42.704;23.354;2022-07-23T20:18:15;95154.22;;;28.21;40.43
1954;BME280;977;42.704;23.354;2022-07-23T20:20:41;95153.25;;;28.12;41.33
1954;BME280;977;42.704;23.354;2022-07-23T20:23:08;95158.03;;;28.15;41.29
1954;BME280;977;42.704;23.354;2022-07-23T20:25:33;95153.19;;;28.17;41.21
1954;BME280;977;42.704;23.354;2022-07-23T20:27:59;95152.91;;;28.19;41.09
1954;BME280;977;42.704;23.354;2022-07-23T20:30:27;95158.47;;;28.22;41.36
1954;BME280;977;42.704;23.354;2022-07-23T20:32:52;95155.22;;;28.25;42.45
1954;BME280;977;42.704;23.354;2022-07-23T20:35:20;95156.31;;;28.24;42.83
1954;BME280;977;42.704;23.354;2022-07-23T20:37:45;95157.41;;;28.23;43.68
1954;BME280;977;42.704;23.354;2022-07-23T20:40:11;95148.44;;;28.14;44.23
1954;BME280;977;42.704;23.354;2022-07-23T20:42:36;95160.72;;;28.15;44.49
1954;BME280;977;42.704;23.354;2022-07-23T20:45:03;95170.69;;;28.10;44.82
1954;BME280;977;42.704;23.354;2022-07-23T20:47:29;95160.31;;;28.03;45.30
1954;BME280;977;42.704;23.354;2022-07-23T20:49:54;95156.38;;;28.00;45.78
1954;BME280;977;42.704;23.354;2022-07-23T20:52:20;95166.34;;;27.95;45.47
1954;BME280;977;42.704;23.354;2022-07-23T20:54:45;95155.97;;;27.88;45.87
1954;BME280;977;42.704;23.354;2022-07-23T20:57:11;95169.63;;;27.87;45.41
1954;BME280;977;42.704;23.354;2022-07-23T20:59:36;95169.22;;;27.74;45.70
1954;BME280;977;42.704;23.354;2022-07-23T21:02:03;95159.75;;;27.58;46.06
1954;BME280;977;42.704;23.354;2022-07-23T21:04:29;95176.06;;;27.57;46.61
1954;BME280;977;42.704;23.354;2022-07-23T21:06:55;95173.19;;;27.53;46.59
1954;BME280;977;42.704;23.354;2022-07-23T21:09:21;95172.47;;;27.42;46.93
1954;BME280;977;42.704;23.354;2022-07-23T21:11:46;95180.28;;;27.39;46.68
1954;BME280;977;42.704;23.354;2022-07-23T21:14:11;95186.47;;;27.34;46.92
1954;BME280;977;42.704;23.354;2022-07-23T21:16:37;95181.19;;;27.24;46.65
1954;BME280;977;42.704;23.354;2022-07-23T21:19:02;95180.75;;;27.17;46.82
1954;BME280;977;42.704;23.354;2022-07-23T21:21:28;95179.47;;;27.09;46.85
1954;BME280;977;42.704;23.354;2022-07-23T21:23:54;95181.66;;;27.02;47.18
1954;BME280;977;42.704;23.354;2022-07-23T21:26:20;95176.09;;;26.93;47.21
1954;BME280;977;42.704;23.354;2022-07-23T21:28:46;95184.44;;;26.87;47.73
1954;BME280;977;42.704;23.354;2022-07-23T21:31:11;95183.91;;;26.85;47.53
1954;BME280;977;42.704;23.354;2022-07-23T21:33:37;95191.91;;;26.85;48.02
1954;BME280;977;42.704;23.354;2022-07-23T21:36:03;95194.88;;;26.83;48.25
1954;BME280;977;42.704;23.354;2022-07-23T21:38:29;95194.16;;;26.67;48.25
1954;BME280;977;42.704;23.354;2022-07-23T21:40:55;95190.56;;;26.48;47.40
1954;BME280;977;42.704;23.354;2022-07-23T21:43:21;95200.53;;;26.27;46.66
1954;BME280;977;42.704;23.354;2022-07-23T21:45:48;95202.53;;;25.91;47.02
1954;BME280;977;42.704;23.354;2022-07-23T21:48:13;95204.44;;;25.85;45.70
1954;BME280;977;42.704;23.354;2022-07-23T21:50:39;95199.94;;;25.65;46.05
1954;BME280;977;42.704;23.354;2022-07-23T21:53:05;95205.25;;;25.65;45.97
1954;BME280;977;42.704;23.354;2022-07-23T21:55:30;95202.59;;;25.65;45.78
1954;BME280;977;42.704;23.354;2022-07-23T21:57:56;95198.88;;;25.61;45.46
1954;BME280;977;42.704;23.354;2022-07-23T22:00:24;95194.59;;;25.65;45.37
1954;BME280;977;42.704;23.354;2022-07-23T22:02:54;95195.41;;;25.66;45.47
1954;BME280;977;42.704;23.354;2022-07-23T22:05:20;95196.72;;;25.63;45.75
1954;BME280;977;42.704;23.354;2022-07-23T22:07:46;95193.00;;;25.64;45.27
1954;BME280;977;42.704;23.354;2022-07-23T22:10:12;95193.00;;;25.64;45.29
1954;BME280;977;42.704;23.354;2022-07-23T22:12:38;95200.47;;;25.62;45.28
1954;BME280;977;42.704;23.354;2022-07-23T22:15:06;95203.13;;;25.57;45.68